Time;durP1;ratioP1;P1;durP2;ratioP2;P2;SDS_P1;SDS_P2;PMS_P1;PMS_P2;Temp;Humidity;BMP_temperature;BMP_pressure;BME280_temperature;BME280_humidity;BME280_pressure;Samples;Min_cycle;Max_cycle;Signal;HPM_P1;HPM_P2
2021/04/24 00:02:23;;;;;;;61.85;12.47;;;;;;;3.78;96.52;100769.14;1719713;83;21145;-43
2021/04/24 00:04:50;;;;;;;69.53;12.10;;;;;;;3.77;96.48;100769.98;1719729;82;20967;-43
2021/04/24 00:07:19;;;;;;;62.00;12.15;;;;;;;3.78;96.55;100764.02;1719795;83;20995;-43
2021/04/24 00:09:48;;;;;;;49.08;11.10;;;;;;;3.74;96.53;100760.14;1719773;83;20994;-43
2021/04/24 00:12:16;;;;;;;93.35;13.72;;;;;;;3.74;96.18;100758.86;1719792;83;21205;-42
2021/04/24 00:14:44;;;;;;;34.65;11.35;;;;;;;3.74;96.18;100758.86;1719698;83;20979;-43
2021/04/24 00:17:12;;;;;;;63.75;13.48;;;;;;;3.75;96.36;100752.02;1719840;83;21011;-43
2021/04/24 00:19:41;;;;;;;108.78;15.38;;;;;;;3.73;96.28;100759.70;1719734;82;20971;-43
2021/04/24 00:22:11;;;;;;;90.90;13.60;;;;;;;3.72;96.18;100758.38;1719857;82;21030;-43
2021/04/24 00:24:38;;;;;;;53.50;12.70;;;;;;;3.69;96.19;100757.06;1719920;83;22772;-44
2021/04/24 00:27:06;;;;;;;99.17;15.05;;;;;;;3.68;96.10;100765.58;1719702;83;21061;-41
2021/04/24 00:29:34;;;;;;;43.68;11.35;;;;;;;3.63;96.02;100758.25;1715159;83;20968;-42
2021/04/24 00:32:03;;;;;;;41.70;10.88;;;;;;;3.64;96.04;100759.98;1706205;82;21071;-42
2021/04/24 00:34:31;;;;;;;74.55;13.15;;;;;;;3.66;95.94;100767.26;1686348;84;21090;-42
2021/04/24 00:36:58;;;;;;;46.02;10.18;;;;;;;3.67;95.78;100770.26;1706175;84;21957;-43
2021/04/24 00:39:26;;;;;;;48.80;11.70;;;;;;;3.65;95.59;100773.22;1706161;84;21031;-42
2021/04/24 00:41:55;;;;;;;78.35;14.98;;;;;;;3.63;95.44;100773.18;1706246;84;20944;-42
2021/04/24 00:44:23;;;;;;;38.00;10.85;;;;;;;3.59;95.23;100775.26;1706244;84;21074;-42
2021/04/24 00:46:52;;;;;;;61.50;12.95;;;;;;;3.56;95.19;100774.81;1706326;84;21058;-42
2021/04/24 00:49:21;;;;;;;78.92;12.85;;;;;;;3.54;95.16;100770.09;1706148;84;20995;-42
2021/04/24 00:51:49;;;;;;;86.30;15.23;;;;;;;3.54;95.11;100778.17;1706141;84;21058;-42
2021/04/24 00:54:17;;;;;;;79.12;12.13;;;;;;;3.54;94.98;100776.89;1706184;83;20999;-41
2021/04/24 00:56:45;;;;;;;75.95;12.50;;;;;;;3.52;94.91;100782.41;1706224;84;21050;-43
2021/04/24 00:59:13;;;;;;;44.48;10.13;;;;;;;3.50;94.85;100776.41;1686341;84;21066;-42
2021/04/24 01:01:41;;;;;;;53.98;11.20;;;;;;;3.48;94.83;100789.60;1706200;84;21378;-42
2021/04/24 01:04:10;;;;;;;50.33;11.08;;;;;;;3.46;94.74;100795.95;1706181;82;21623;-42
2021/04/24 01:06:37;;;;;;;42.60;10.78;;;;;;;3.44;94.73;100787.00;1706256;84;21023;-42
2021/04/24 01:09:06;;;;;;;22.35;8.93;;;;;;;3.45;94.64;100792.95;1706199;82;21038;-42
2021/04/24 01:11:33;;;;;;;32.08;10.10;;;;;;;3.45;94.44;100805.36;1706262;84;21019;-42
2021/04/24 01:14:02;;;;;;;40.67;10.72;;;;;;;3.45;94.21;100795.52;1706248;84;21208;-42
2021/04/24 01:16:29;;;;;;;29.67;10.08;;;;;;;3.44;94.13;100798.52;1706200;84;20980;-40
2021/04/24 01:18:57;;;;;;;49.10;11.50;;;;;;;3.42;94.01;100800.19;1706186;84;21098;-40
2021/04/24 01:21:24;;;;;;;70.55;12.20;;;;;;;3.43;93.97;100803.19;1706122;82;20932;-41
2021/04/24 01:23:54;;;;;;;100.58;14.83;;;;;;;3.42;93.88;100805.31;1651162;84;21072;-41
2021/04/24 01:26:22;;;;;;;62.25;11.57;;;;;;;3.41;93.84;100800.15;1686382;84;21439;-41
2021/04/24 01:28:50;;;;;;;48.13;11.30;;;;;;;3.38;93.68;100800.95;1706178;84;20964;-40
2021/04/24 01:31:17;;;;;;;26.60;11.93;;;;;;;3.36;93.68;100805.18;1718699;83;21038;-42
2021/04/24 01:33:45;;;;;;;48.17;12.98;;;;;;;3.34;93.62;100803.45;1719681;83;20998;-41
2021/04/24 01:36:14;;;;;;;134.65;17.45;;;;;;;3.30;93.62;100807.64;1719714;83;21062;-42
2021/04/24 01:38:41;;;;;;;50.92;11.90;;;;;;;3.28;93.68;100794.84;1719726;83;21211;-41
2021/04/24 01:41:08;;;;;;;96.80;14.25;;;;;;;3.25;93.55;100801.59;1719687;83;20998;-42
2021/04/24 01:43:36;;;;;;;73.55;13.08;;;;;;;3.23;93.63;100811.78;1719707;83;21034;-42
2021/04/24 01:46:04;;;;;;;46.68;10.40;;;;;;;3.22;93.67;100807.50;1719732;83;20935;-42
2021/04/24 01:48:31;;;;;;;36.63;9.68;;;;;;;3.22;93.70;100811.78;1719687;83;21015;-42
2021/04/24 01:50:59;;;;;;;15.55;8.30;;;;;;;3.25;93.78;100812.67;1719743;83;21277;-42
2021/04/24 01:53:27;;;;;;;17.77;8.73;;;;;;;3.33;93.89;100817.92;1719623;83;21081;-42
2021/04/24 01:55:55;;;;;;;33.08;9.28;;;;;;;3.37;93.59;100814.58;1719745;83;21112;-42
2021/04/24 01:58:22;;;;;;;20.05;8.28;;;;;;;3.42;93.28;100819.39;1719697;83;20947;-42
2021/04/24 02:00:54;;;;;;;13.35;7.65;;;;;;;3.44;93.09;100823.23;1719702;83;21503;-42
2021/04/24 02:03:22;;;;;;;19.77;6.33;;;;;;;3.45;92.60;100822.39;1719670;82;21363;-42
2021/04/24 02:05:50;;;;;;;14.25;5.95;;;;;;;3.49;92.35;100820.77;1719639;83;21050;-42
2021/04/24 02:08:27;;;;;;;17.23;5.30;;;;;;;3.55;91.40;100827.25;1719627;83;21099;-42
2021/04/24 02:10:55;;;;;;;7.95;4.40;;;;;;;3.64;88.83;100832.52;1719244;83;21034;-43
2021/04/24 02:13:27;;;;;;;12.98;4.65;;;;;;;3.80;86.31;100825.96;1719684;83;20931;-43
2021/04/24 02:15:54;;;;;;;10.00;4.28;;;;;;;3.92;85.67;100830.41;1719672;83;21377;-42
2021/04/24 02:18:24;;;;;;;18.62;3.77;;;;;;;3.92;84.86;100832.97;1719671;83;21022;-42
2021/04/24 02:20:51;;;;;;;11.15;3.45;;;;;;;3.92;84.97;100832.09;1719672;83;21070;-42
2021/04/24 02:23:19;;;;;;;14.03;4.47;;;;;;;3.94;83.95;100836.81;1719660;83;21006;-43
2021/04/24 02:25:46;;;;;;;7.10;3.72;;;;;;;3.94;82.38;100840.26;1719763;83;21161;-41
2021/04/24 02:28:15;;;;;;;9.48;4.05;;;;;;;3.98;83.02;100844.58;1719675;82;21138;-43
2021/04/24 02:30:44;;;;;;;5.75;3.50;;;;;;;3.96;83.48;100847.95;1719596;83;21640;-43
2021/04/24 02:33:12;;;;;;;7.53;3.40;;;;;;;3.91;82.11;100847.86;1719744;83;21038;-43
2021/04/24 02:35:47;;;;;;;7.65;3.30;;;;;;;3.91;82.11;100847.86;1719646;83;21023;-42
2021/04/24 02:38:24;;;;;;;5.33;3.40;;;;;;;3.90;82.56;100847.42;1719724;83;20931;-41
2021/04/24 02:40:52;;;;;;;7.92;2.90;;;;;;;3.87;81.96;100861.47;1719686;83;21147;-42
2021/04/24 02:43:20;;;;;;;7.20;3.37;;;;;;;3.82;81.22;100865.27;1719593;82;21607;-42
2021/04/24 02:45:48;;;;;;;7.28;3.27;;;;;;;3.82;81.51;100865.66;1719584;83;21022;-42
2021/04/24 02:48:17;;;;;;;4.50;2.85;;;;;;;3.77;81.25;100872.42;1719681;83;21041;-41
2021/04/24 02:50:45;;;;;;;5.08;3.12;;;;;;;3.77;80.83;100880.95;1719781;83;21618;-42
2021/04/24 02:53:12;;;;;;;6.35;3.50;;;;;;;3.77;80.20;100878.81;1719775;83;22283;-42
2021/04/24 02:55:41;;;;;;;5.58;3.00;;;;;;;3.73;80.30;100876.22;1719539;83;20975;-43
2021/04/24 02:58:09;;;;;;;7.72;2.90;;;;;;;3.71;80.28;100883.41;1719660;83;20998;-42
2021/04/24 03:00:36;;;;;;;6.30;3.62;;;;;;;3.68;80.11;100888.48;1719635;83;20971;-42
2021/04/24 03:03:07;;;;;;;8.15;3.17;;;;;;;3.64;80.61;100891.84;1719562;82;21007;-43
2021/04/24 03:05:35;;;;;;;6.83;2.58;;;;;;;3.61;80.84;100890.50;1719668;82;21376;-42
2021/04/24 03:08:04;;;;;;;9.88;3.15;;;;;;;3.57;80.87;100894.30;1719556;82;21086;-41
2021/04/24 03:10:32;;;;;;;25.32;3.25;;;;;;;3.56;80.88;100892.98;1719705;83;21571;-43
2021/04/24 03:13:01;;;;;;;11.85;3.90;;;;;;;3.51;81.17;100896.73;1719660;83;21468;-42
2021/04/24 03:15:28;;;;;;;4.28;3.12;;;;;;;3.47;81.43;100892.39;1719707;83;21010;-43
2021/04/24 03:17:56;;;;;;;19.25;3.47;;;;;;;3.44;81.23;100889.78;1719653;83;21373;-42
2021/04/24 03:20:24;;;;;;;3.75;2.33;;;;;;;3.47;81.29;100894.11;1719638;83;20963;-43
2021/04/24 03:22:51;;;;;;;5.22;2.47;;;;;;;3.50;80.47;100904.40;1719670;83;20975;-43
2021/04/24 03:25:19;;;;;;;6.20;2.52;;;;;;;3.56;79.89;100904.50;1719642;82;21034;-43
2021/04/24 03:27:46;;;;;;;2.52;2.30;;;;;;;3.65;79.16;100904.65;1719667;82;20986;-43
2021/04/24 03:30:16;;;;;;;3.27;2.83;;;;;;;3.76;78.63;100907.83;1719548;83;21373;-42
2021/04/24 03:32:43;;;;;;;3.95;2.10;;;;;;;3.80;78.82;100902.80;1719631;83;21018;-42
2021/04/24 03:35:11;;;;;;;3.25;2.30;;;;;;;3.87;78.96;100910.14;1719611;83;21026;-42
2021/04/24 03:37:39;;;;;;;8.78;2.72;;;;;;;3.97;79.03;100920.12;1719649;82;21014;-43
2021/04/24 03:40:09;;;;;;;60.78;5.50;;;;;;;4.04;79.22;100916.81;1719612;83;21073;-42
2021/04/24 03:42:36;;;;;;;27.15;3.67;;;;;;;4.12;79.57;100916.53;1719665;83;21207;-43
2021/04/24 03:46:16;;;;;;;6.28;2.60;;;;;;;4.42;79.67;100919.51;1776950;79;22559;-42
2021/04/24 03:48:43;;;;;;;6.92;2.75;;;;;;;4.67;78.35;100921.13;1749524;80;20986;-43
2021/04/24 03:51:11;;;;;;;7.62;3.40;;;;;;;4.79;78.92;100921.31;1749421;80;21375;-43
2021/04/24 03:53:39;;;;;;;34.95;5.30;;;;;;;4.79;78.92;100921.31;1749428;82;21602;-44
2021/04/24 03:56:07;;;;;;;72.78;7.37;;;;;;;4.92;79.16;100924.89;1749388;82;21022;-43
2021/04/24 03:58:35;;;;;;;114.00;10.32;;;;;;;5.04;79.63;100928.03;1749428;82;20963;-43
2021/04/24 04:01:03;;;;;;;155.37;10.88;;;;;;;5.17;79.66;100934.17;1749436;82;20967;-44
2021/04/24 04:03:30;;;;;;;47.58;7.62;;;;;;;5.24;79.83;100932.10;1741450;82;21194;-42
2021/04/24 04:05:58;;;;;;;51.60;7.35;;;;;;;5.34;80.21;100943.34;1719510;82;20923;-42
2021/04/24 04:08:27;;;;;;;40.08;6.83;;;;;;;5.42;80.39;100944.71;1719619;82;21018;-43
2021/04/24 04:10:55;;;;;;;37.63;6.97;;;;;;;5.46;80.31;100940.04;1719501;83;20975;-43
2021/04/24 04:13:23;;;;;;;56.90;7.45;;;;;;;5.56;80.42;100949.58;1719553;83;21026;-42
2021/04/24 04:15:51;;;;;;;36.05;8.23;;;;;;;5.66;80.40;100947.94;1719551;82;21206;-43
2021/04/24 04:18:20;;;;;;;34.55;6.87;;;;;;;5.77;79.29;100949.77;1719519;83;21026;-42
2021/04/24 04:20:51;;;;;;;9.48;5.05;;;;;;;5.84;79.46;100948.56;1719551;83;21062;-43
2021/04/24 04:23:25;;;;;;;16.07;5.65;;;;;;;5.87;78.05;100956.70;1719522;83;21026;-43
2021/04/24 04:25:55;;;;;;;24.65;6.47;;;;;;;5.84;78.23;100961.41;1719545;83;21003;-43
2021/04/24 04:28:22;;;;;;;30.70;7.03;;;;;;;5.85;77.53;100963.13;1719515;83;21431;-42
2021/04/24 04:30:51;;;;;;;21.62;5.87;;;;;;;5.83;78.08;100962.66;1719461;82;21050;-43
2021/04/24 04:33:19;;;;;;;17.00;5.65;;;;;;;5.76;77.45;100965.59;1719509;82;21010;-41
2021/04/24 04:35:46;;;;;;;11.08;5.45;;;;;;;5.77;77.13;100967.31;1719503;83;20966;-42
2021/04/24 04:38:14;;;;;;;13.40;5.85;;;;;;;5.75;77.16;100971.17;1719642;83;21014;-43
2021/04/24 04:40:44;;;;;;;8.95;5.08;;;;;;;5.81;77.81;100972.06;1719500;83;21226;-43
2021/04/24 04:43:12;;;;;;;12.80;6.53;;;;;;;5.88;76.94;100973.84;1719466;82;20983;-43
2021/04/24 04:45:40;;;;;;;11.12;5.58;;;;;;;5.87;76.97;100970.83;1719934;82;21047;-43
2021/04/24 04:48:07;;;;;;;12.10;5.05;;;;;;;5.96;77.50;100975.20;1720308;83;20959;-43
2021/04/24 04:50:37;;;;;;;15.38;6.22;;;;;;;6.13;77.26;100981.80;1720323;83;20947;-43
2021/04/24 04:53:06;;;;;;;11.78;5.28;;;;;;;6.18;76.43;100973.69;1720240;83;21340;-43
2021/04/24 04:55:35;;;;;;;12.30;5.15;;;;;;;6.24;76.67;100975.05;1720150;83;20983;-43
2021/04/24 04:58:03;;;;;;;12.13;5.35;;;;;;;6.38;77.28;100972.99;1719749;83;20974;-42
2021/04/24 05:00:31;;;;;;;10.18;4.85;;;;;;;6.49;76.67;100979.09;1719710;83;21042;-43
2021/04/24 05:02:58;;;;;;;13.22;4.67;;;;;;;6.50;76.61;100976.95;1719738;82;20975;-42
2021/04/24 05:05:26;;;;;;;10.23;5.50;;;;;;;6.61;76.48;100975.30;1719742;83;21202;-43
2021/04/24 05:07:54;;;;;;;8.03;4.85;;;;;;;6.70;76.37;100977.52;1719699;83;20951;-43
2021/04/24 05:10:25;;;;;;;14.75;4.87;;;;;;;6.86;75.95;100979.73;1719794;83;21007;-42
2021/04/24 05:12:53;;;;;;;9.60;5.50;;;;;;;6.90;74.02;100982.76;1719859;83;21627;-43
2021/04/24 05:15:20;;;;;;;12.80;5.25;;;;;;;6.98;74.50;100982.36;1719766;83;20963;-41
2021/04/24 05:17:48;;;;;;;11.25;4.97;;;;;;;7.04;73.62;100978.52;1693306;83;21398;-43
2021/04/24 05:20:17;;;;;;;8.13;4.83;;;;;;;7.10;73.17;100968.69;1719770;83;21019;-41
2021/04/24 05:22:45;;;;;;;5.53;4.53;;;;;;;7.13;73.70;100959.69;1719911;83;21508;-41
2021/04/24 05:25:14;;;;;;;9.63;5.17;;;;;;;7.12;70.76;100959.25;1719717;83;21163;-41
2021/04/24 05:27:44;;;;;;;7.10;4.70;;;;;;;7.12;71.83;100959.25;1719728;83;21042;-42
2021/04/24 05:30:14;;;;;;;10.08;4.25;;;;;;;7.26;72.19;100971.33;1719760;83;21223;-42
2021/04/24 05:32:42;;;;;;;15.15;5.33;;;;;;;7.29;70.70;100968.31;1719714;83;21070;-41
2021/04/24 05:35:11;;;;;;;11.88;4.87;;;;;;;7.28;70.94;100969.17;1719697;83;20998;-42
2021/04/24 05:37:38;;;;;;;6.22;4.90;;;;;;;7.35;70.78;100972.64;1719829;83;21612;-41
2021/04/24 05:40:08;;;;;;;15.25;6.20;;;;;;;7.43;69.99;100975.25;1719865;83;21104;-42
2021/04/24 05:42:36;;;;;;;20.60;6.47;;;;;;;7.36;71.01;100974.80;1719714;83;21205;-42
2021/04/24 05:45:12;;;;;;;16.17;7.28;;;;;;;7.33;69.90;100978.22;1716457;83;21050;-42
2021/04/24 05:47:48;;;;;;;10.30;5.30;;;;;;;7.21;70.15;100971.75;1706216;84;21042;-42
2021/04/24 05:50:22;;;;;;;12.40;6.00;;;;;;;7.18;71.12;100977.30;1706235;84;21160;-41
2021/04/24 05:52:51;;;;;;;7.72;5.33;;;;;;;7.19;70.92;100970.44;1705985;84;20967;-42
2021/04/24 05:55:19;;;;;;;7.45;5.37;;;;;;;7.11;67.67;100965.70;1684741;84;21957;-42
2021/04/24 05:57:47;;;;;;;8.50;4.35;;;;;;;7.08;68.37;100972.13;1706245;83;21679;-43
2021/04/24 06:00:19;;;;;;;12.15;4.33;;;;;;;7.16;66.92;100974.30;1706143;84;21221;-43
2021/04/24 06:02:48;;;;;;;6.37;3.70;;;;;;;7.19;65.89;100979.01;1706230;83;21106;-43
2021/04/24 06:05:16;;;;;;;8.78;3.70;;;;;;;7.28;65.01;100980.77;1706200;82;20996;-43
2021/04/24 06:07:45;;;;;;;9.60;3.67;;;;;;;7.36;64.91;100985.11;1706183;84;21201;-42
2021/04/24 06:10:17;;;;;;;6.72;3.12;;;;;;;7.39;63.56;100991.55;1706098;83;21030;-41
2021/04/24 06:12:48;;;;;;;7.40;3.40;;;;;;;7.37;63.81;100975.23;1706196;84;21792;-44
2021/04/24 06:15:18;;;;;;;5.87;2.75;;;;;;;7.31;64.27;100985.08;1706114;84;21083;-43
2021/04/24 06:17:46;;;;;;;5.47;2.60;;;;;;;7.23;63.28;100980.34;1706135;84;20940;-41
2021/04/24 06:20:15;;;;;;;23.20;2.95;;;;;;;7.31;61.98;100978.64;1706153;84;21207;-42
2021/04/24 06:22:42;;;;;;;10.13;3.30;;;;;;;7.30;62.04;100978.20;1706142;83;21027;-43
2021/04/24 06:25:12;;;;;;;4.78;2.60;;;;;;;7.29;63.04;100979.06;1706076;84;21047;-42
2021/04/24 06:27:40;;;;;;;4.92;3.77;;;;;;;7.35;63.63;100979.52;1706170;84;21027;-43
2021/04/24 06:30:10;;;;;;;9.70;3.70;;;;;;;7.45;63.91;100976.98;1706199;82;20904;-42
2021/04/24 06:32:37;;;;;;;9.85;3.83;;;;;;;7.53;62.12;100956.36;1706165;84;21200;-42
2021/04/24 06:35:06;;;;;;;7.58;3.20;;;;;;;7.47;62.84;100981.70;1706102;84;20960;-44
2021/04/24 06:37:34;;;;;;;11.03;3.92;;;;;;;7.56;61.95;100996.75;1706259;84;21552;-43
2021/04/24 06:40:08;;;;;;;11.22;4.87;;;;;;;7.57;63.33;100989.45;1706066;84;21026;-44
2021/04/24 06:42:35;;;;;;;8.48;4.45;;;;;;;7.66;64.51;100991.19;1706117;84;20995;-44
2021/04/24 06:45:05;;;;;;;7.62;4.80;;;;;;;7.70;65.64;100995.49;1706149;83;22996;-43
2021/04/24 06:47:33;;;;;;;12.45;5.47;;;;;;;7.78;65.25;101000.22;1706107;84;21007;-43
2021/04/24 06:50:00;;;;;;;14.07;5.10;;;;;;;7.67;63.17;101005.35;1706152;83;20964;-42
2021/04/24 06:52:28;;;;;;;12.93;5.65;;;;;;;7.57;64.70;100998.47;1706153;83;20940;-42
2021/04/24 06:54:55;;;;;;;11.57;5.80;;;;;;;7.73;62.79;101000.65;1706215;83;20960;-43
2021/04/24 06:57:23;;;;;;;15.55;6.62;;;;;;;7.77;62.64;101001.08;1706206;84;21202;-41
2021/04/24 06:59:51;;;;;;;18.23;5.33;;;;;;;7.91;61.82;101008.84;1706139;83;21034;-43
2021/04/24 07:02:19;;;;;;;7.47;5.22;;;;;;;7.92;63.11;101010.55;1706176;83;21037;-42
2021/04/24 07:04:46;;;;;;;11.78;5.75;;;;;;;7.97;61.85;101014.02;1706025;82;21042;-42
2021/04/24 07:07:14;;;;;;;12.35;4.92;;;;;;;8.00;62.85;101017.02;1706153;83;21273;-43
2021/04/24 07:09:41;;;;;;;17.67;5.80;;;;;;;8.11;61.48;101020.48;1706153;84;21389;-43
2021/04/24 07:12:10;;;;;;;10.72;5.17;;;;;;;8.13;58.21;101009.73;1706083;84;21075;-40
2021/04/24 07:14:40;;;;;;;10.43;5.50;;;;;;;8.03;61.98;101022.17;1706121;84;21074;-41
2021/04/24 07:17:09;;;;;;;12.35;4.72;;;;;;;8.11;62.44;101010.17;1706006;83;21031;-43
2021/04/24 07:19:37;;;;;;;11.73;3.87;;;;;;;8.30;62.05;101019.18;1706150;84;20900;-42
2021/04/24 07:22:05;;;;;;;6.15;3.67;;;;;;;8.46;57.63;101013.16;1706140;84;21211;-41
2021/04/24 07:24:33;;;;;;;7.95;3.50;;;;;;;8.37;57.79;101018.76;1706010;83;21082;-43
2021/04/24 07:27:01;;;;;;;6.10;3.47;;;;;;;8.25;58.12;101014.04;1706094;84;20963;-42
2021/04/24 07:29:29;;;;;;;5.83;3.40;;;;;;;8.25;60.01;101016.63;1706170;83;20944;-42
2021/04/24 07:31:57;;;;;;;7.80;3.75;;;;;;;8.27;57.90;101016.19;1706138;83;20956;-41
2021/04/24 07:34:25;;;;;;;4.70;2.77;;;;;;;8.29;57.92;101026.08;1706195;84;21199;-41
2021/04/24 07:36:53;;;;;;;36.85;3.62;;;;;;;8.51;56.08;101030.39;1706023;83;21037;-42
2021/04/24 07:39:21;;;;;;;49.90;4.85;;;;;;;8.59;50.68;101028.69;1706143;83;21043;-41
2021/04/24 07:41:48;;;;;;;52.25;4.87;;;;;;;8.47;54.16;101038.55;1706094;84;20968;-41
2021/04/24 07:44:15;;;;;;;112.45;6.35;;;;;;;8.44;53.30;101026.50;1706239;84;21039;-43
2021/04/24 07:46:43;;;;;;;24.75;3.77;;;;;;;8.46;54.00;101043.25;1706109;83;21241;-42
2021/04/24 07:49:11;;;;;;;11.22;3.27;;;;;;;8.43;55.56;101041.97;1706046;84;21153;-42
2021/04/24 07:51:39;;;;;;;29.48;3.15;;;;;;;8.33;53.61;101039.81;1706138;84;21050;-42
2021/04/24 07:54:06;;;;;;;37.15;3.00;;;;;;;8.38;53.68;101044.56;1706069;82;20949;-42
2021/04/24 07:56:34;;;;;;;46.68;3.90;;;;;;;8.38;52.64;101046.27;1706136;84;20967;-42
2021/04/24 07:59:02;;;;;;;1.60;1.50;;;;;;;8.45;50.36;101038.95;1706157;84;21213;-43
2021/04/24 08:01:31;;;;;;;62.78;3.70;;;;;;;8.43;49.39;101043.26;1706001;82;20999;-47
2021/04/24 08:03:59;;;;;;;3.90;1.27;;;;;;;8.39;51.40;101038.96;1706157;82;20960;-43
2021/04/24 08:06:27;;;;;;;6.35;1.90;;;;;;;8.41;48.57;101038.11;1706194;83;21051;-43
2021/04/24 08:08:55;;;;;;;20.92;2.33;;;;;;;8.40;49.26;101039.39;1706139;84;21101;-42
2021/04/24 08:11:23;;;;;;;131.97;6.42;;;;;;;8.37;48.31;101038.11;1706137;84;21084;-42
2021/04/24 08:13:50;;;;;;;829.90;32.67;;;;;;;8.43;50.96;101041.55;1706002;83;21059;-42
2021/04/24 08:16:19;;;;;;;472.45;21.68;;;;;;;8.64;51.05;101030.83;1706093;83;20979;-42
2021/04/24 08:18:47;;;;;;;18.65;2.37;;;;;;;8.84;51.40;101026.03;1706095;83;21003;-43
2021/04/24 08:21:16;;;;;;;76.00;5.22;;;;;;;8.96;50.25;101025.14;1706105;84;20992;-42
2021/04/24 08:23:44;;;;;;;12.43;3.12;;;;;;;8.97;50.48;101030.32;1706089;84;21443;-42
2021/04/24 08:26:12;;;;;;;643.70;26.30;;;;;;;8.87;50.67;101038.52;1706002;84;20964;-43
2021/04/24 08:28:40;;;;;;;44.10;3.95;;;;;;;8.76;53.53;101035.11;1706124;82;21102;-41
2021/04/24 08:31:07;;;;;;;9.63;2.70;;;;;;;8.94;51.05;101039.38;1706057;83;20992;-41
2021/04/24 08:33:36;;;;;;;491.98;23.38;;;;;;;8.79;52.81;101027.36;1706321;84;21043;-44
2021/04/24 08:36:05;;;;;;;990.65;47.05;;;;;;;8.87;51.76;101033.35;1706201;83;21416;-43
2021/04/24 08:38:33;;;;;;;957.00;49.73;;;;;;;8.56;52.94;101019.21;1699382;83;20990;-41
2021/04/24 08:41:03;;;;;;;218.63;9.75;;;;;;;8.28;54.58;101020.91;1701254;83;20995;-42
2021/04/24 08:43:39;;;;;;;593.52;24.37;;;;;;;8.08;54.99;101020.90;1702214;83;21026;-42
2021/04/24 08:46:08;;;;;;;138.32;8.33;;;;;;;7.92;55.90;101022.16;1691441;83;21079;-43
2021/04/24 08:48:37;;;;;;;197.25;14.10;;;;;;;8.04;56.15;101015.74;1700975;83;22744;-40
2021/04/24 08:51:05;;;;;;;468.60;27.40;;;;;;;8.53;57.28;101008.90;1706092;83;21019;-41
2021/04/24 08:53:33;;;;;;;94.85;6.70;;;;;;;8.80;52.19;101007.55;1706290;82;21086;-42
2021/04/24 08:56:00;;;;;;;110.45;8.73;;;;;;;8.62;53.39;101011.91;1675682;84;21125;-42
2021/04/24 08:58:28;;;;;;;545.23;27.60;;;;;;;8.49;55.27;101013.61;1693232;84;20975;-41
2021/04/24 09:00:55;;;;;;;398.50;19.82;;;;;;;8.49;53.91;101009.73;1706133;83;21241;-42
2021/04/24 09:03:25;;;;;;;21.68;4.10;;;;;;;8.41;54.58;101014.02;1705966;82;20971;-43
2021/04/24 09:05:53;;;;;;;15.53;3.92;;;;;;;8.50;53.48;101017.94;1706198;84;21026;-41
2021/04/24 09:08:27;;;;;;;13.30;4.08;;;;;;;8.52;52.56;101011.47;1706193;84;21059;-42
2021/04/24 09:10:58;;;;;;;19.15;3.25;;;;;;;8.56;53.20;101012.77;1694233;83;21046;-43
2021/04/24 09:13:28;;;;;;;3.62;3.08;;;;;;;8.56;52.08;101012.77;1691290;83;21376;-42
2021/04/24 09:15:58;;;;;;;8.63;3.17;;;;;;;8.30;52.27;101025.62;1691168;83;20995;-43
2021/04/24 09:18:28;;;;;;;14.85;2.92;;;;;;;7.95;53.90;101029.89;1691269;83;21032;-43
2021/04/24 09:20:59;;;;;;;4.97;3.15;;;;;;;7.55;56.77;101020.34;1691400;83;21472;-42
2021/04/24 09:23:36;;;;;;;8.38;3.30;;;;;;;6.91;60.39;101039.81;1691399;83;21062;-43
2021/04/24 09:26:10;;;;;;;5.60;3.12;;;;;;;6.26;64.37;101044.47;1702703;82;21375;-43
2021/04/24 09:28:45;;;;;;;8.75;3.58;;;;;;;5.66;66.39;101050.69;1705998;84;20956;-42
2021/04/24 09:31:16;;;;;;;7.85;4.87;;;;;;;5.13;70.32;101056.89;1709314;82;21041;-43
2021/04/24 09:33:46;;;;;;;5.62;4.35;;;;;;;5.01;72.65;101052.45;1708708;83;21045;-44
2021/04/24 09:36:17;;;;;;;6.60;4.58;;;;;;;5.01;72.65;101052.45;1663147;85;21068;-42
2021/04/24 09:38:48;;;;;;;7.78;4.25;;;;;;;5.02;74.06;101058.02;1663204;85;22354;-43
2021/04/24 09:41:27;;;;;;;10.50;3.60;;;;;;;5.09;75.48;101082.92;1663245;86;21582;-43
2021/04/24 09:44:08;;;;;;;5.08;3.52;;;;;;;4.89;73.18;101082.20;1663156;86;22179;-44
2021/04/24 09:46:52;;;;;;;5.78;4.12;;;;;;;4.89;73.18;101082.20;1682195;83;21066;-43
2021/04/24 09:49:30;;;;;;;7.78;3.62;;;;;;;4.70;74.21;101087.48;1719660;83;20951;-43
2021/04/24 09:52:11;;;;;;;4.95;3.47;;;;;;;4.65;74.99;101089.11;1718760;83;22324;-45
2021/04/24 09:54:48;;;;;;;4.90;3.55;;;;;;;4.86;77.68;101080.87;1668912;85;21035;-42
2021/04/24 10:00:11;;;;;;;3.20;2.90;;;;;;;5.60;79.24;101072.05;1869259;76;23629;-43
2021/04/24 10:02:44;;;;;;;5.33;3.10;;;;;;;5.74;74.42;101066.20;1773907;80;21031;-42
2021/04/24 10:05:16;;;;;;;5.60;3.00;;;;;;;5.98;74.68;101062.17;1856938;77;21319;-42
2021/04/24 10:07:55;;;;;;;58.75;5.70;;;;;;;6.36;74.55;101064.70;1787441;80;21050;-42
2021/04/24 10:10:38;;;;;;;28.15;4.60;;;;;;;6.67;71.48;101063.66;1790064;79;20919;-43
2021/04/24 10:13:08;;;;;;;80.72;4.90;;;;;;;6.73;69.95;101051.70;1777419;80;20968;-42
2021/04/24 10:15:46;;;;;;;386.92;15.43;;;;;;;6.71;67.56;101063.70;1796837;78;20923;-42
2021/04/24 10:18:16;;;;;;;51.42;4.47;;;;;;;6.68;66.86;101067.54;1795782;78;21193;-41
2021/04/24 10:20:46;;;;;;;47.60;4.60;;;;;;;6.51;64.84;101060.98;1790371;78;21062;-42
2021/04/24 10:23:15;;;;;;;4.05;3.05;;;;;;;6.29;67.81;101074.94;1792818;78;20979;-42
2021/04/24 10:25:44;;;;;;;5.55;2.42;;;;;;;6.11;69.21;101081.18;1789984;80;21033;-42
2021/04/24 10:28:12;;;;;;;13.53;3.70;;;;;;;5.80;68.64;101084.68;1789871;80;21017;-42
2021/04/24 10:30:40;;;;;;;7.15;3.72;;;;;;;5.62;71.11;101090.03;1790001;80;21196;-43
2021/04/24 10:33:08;;;;;;;8.08;3.17;;;;;;;5.56;71.83;101084.42;1789785;80;20967;-42
2021/04/24 10:35:36;;;;;;;6.83;3.40;;;;;;;5.62;70.52;101081.04;1789871;80;20991;-42
2021/04/24 10:38:04;;;;;;;21.30;4.00;;;;;;;5.71;72.48;101087.59;1789893;80;20990;-42
2021/04/24 10:40:32;;;;;;;35.30;5.15;;;;;;;5.82;71.04;101084.27;1731256;80;20966;-42
2021/04/24 10:43:00;;;;;;;33.05;4.83;;;;;;;5.94;70.95;101089.56;1758721;81;21140;-43
2021/04/24 10:45:34;;;;;;;18.32;3.98;;;;;;;6.08;69.44;101075.60;1762215;81;21109;-43
2021/04/24 10:48:03;;;;;;;25.75;3.87;;;;;;;6.32;69.23;101076.25;1789695;80;20950;-42
2021/04/24 10:50:48;;;;;;;9.43;3.47;;;;;;;6.61;67.13;101079.48;1758600;81;21146;-41
2021/04/24 10:53:25;;;;;;;27.15;4.25;;;;;;;6.93;66.75;101071.98;1762228;81;21772;-42
2021/04/24 10:55:55;;;;;;;12.10;2.90;;;;;;;7.38;66.63;101074.83;1789966;80;21354;-41
2021/04/24 10:58:24;;;;;;;27.10;4.45;;;;;;;7.71;63.20;101060.34;1759340;81;21091;-45
2021/04/24 11:00:56;;;;;;;34.45;5.17;;;;;;;7.76;61.47;101056.06;1771475;81;21069;-41
2021/04/24 11:03:46;;;;;;;60.40;5.87;;;;;;;7.78;61.36;101055.64;1793734;80;21070;-43
2021/04/24 11:06:23;;;;;;;37.17;4.53;;;;;;;7.80;64.27;101055.66;1793862;80;21065;-44
2021/04/24 11:09:18;;;;;;;25.10;4.17;;;;;;;7.85;61.02;101062.97;1793819;80;21329;-42
2021/04/24 11:11:49;;;;;;;11.22;2.70;;;;;;;7.64;59.16;101083.94;1732058;81;20996;-43
2021/04/24 11:14:18;;;;;;;1.92;1.72;;;;;;;7.35;58.62;101069.22;1763199;81;21046;-44
2021/04/24 11:16:46;;;;;;;28.00;2.37;;;;;;;7.17;56.10;101081.59;1745579;81;20949;-43
2021/04/24 11:19:47;;;;;;;4.83;1.70;;;;;;;6.86;54.38;101053.93;1768837;80;21568;-41
2021/04/24 11:22:34;;;;;;;82.90;4.97;;;;;;;6.46;57.31;101103.81;1793234;80;21117;-43
2021/04/24 11:25:28;;;;;;;39.70;3.67;;;;;;;6.16;59.72;101112.93;1793221;80;21058;-42
2021/04/24 11:28:10;;;;;;;4.70;1.67;;;;;;;5.87;60.68;101107.02;1793227;80;20907;-41
2021/04/24 11:31:02;;;;;;;10.68;2.22;;;;;;;5.61;61.08;101117.84;1793186;80;21642;-42
2021/04/24 11:33:42;;;;;;;31.82;2.98;;;;;;;5.38;64.40;101105.56;1793017;80;20911;-42
2021/04/24 11:39:07;;;;;;;2.77;2.00;;;;;;;5.19;65.29;101101.89;1847562;76;22741;-42
2021/04/24 11:41:44;;;;;;;5.15;2.10;;;;;;;5.17;65.92;101108.27;1817764;78;21605;-43
2021/04/24 11:44:25;;;;;;;1.30;1.20;;;;;;;5.21;66.69;101116.89;1817844;79;21195;-43
2021/04/24 11:46:55;;;;;;;3.52;1.60;;;;;;;5.30;68.28;101149.53;1817749;79;21053;-44